createdAt,value
2019-03-06T00:04:50.006Z,571.43
2019-03-06T00:07:22.624Z,566.12
2019-03-06T00:13:53.626Z,557.98
2019-03-06T00:20:25.860Z,554.30
2019-03-06T00:26:56.353Z,549.40
2019-03-06T00:33:27.576Z,561.65
2019-03-06T00:40:00.353Z,574.33
2019-03-06T00:50:25.567Z,579.62
2019-03-06T00:53:50.171Z,583.05
2019-03-06T01:00:24.142Z,590.60
2019-03-06T01:06:55.357Z,595.17
2019-03-06T01:13:28.494Z,600.75
2019-03-06T01:19:58.944Z,603.40
2019-03-06T01:26:29.730Z,587.35
2019-03-06T01:33:04.984Z,581.08
2019-03-06T01:36:29.688Z,591.25
2019-03-06T01:43:01.971Z,592.12
2019-03-06T01:49:33.114Z,586.10
2019-03-06T01:56:04.129Z,592.53
2019-03-06T02:02:35.170Z,578.17
2019-03-06T02:05:59.618Z,574.85
2019-03-06T02:12:30.736Z,568.10
2019-03-06T02:19:02.216Z,557.67
2019-03-06T02:22:26.855Z,551.67
2019-03-06T02:28:57.588Z,564.00
2019-03-06T02:35:27.995Z,549.73
2019-03-06T02:41:58.656Z,561.70
2019-03-06T02:48:29.458Z,550.53
2019-03-06T02:50:59.455Z,546.42
2019-03-06T02:57:30.376Z,541.77
2019-03-06T03:04:02.676Z,541.02
2019-03-06T03:10:33.786Z,532.20
2019-03-06T03:13:58.544Z,522.65
2019-03-06T03:20:29.299Z,502.23
2019-03-06T03:27:00.561Z,500.40
2019-03-06T03:33:31.085Z,485.82
2019-03-06T03:36:55.377Z,485.43
2019-03-06T03:43:25.995Z,478.82
2019-03-06T03:49:56.485Z,465.95
2019-03-06T03:56:28.171Z,466.40
2019-03-06T03:59:55.547Z,468.75
2019-03-06T04:06:43.627Z,460.43
2019-03-06T04:09:26.496Z,461.70
2019-03-06T04:11:56.707Z,454.62
2019-03-06T04:14:26.459Z,454.00
2019-03-06T04:17:50.715Z,455.67
2019-03-06T04:24:20.932Z,450.30
2019-03-06T04:30:52.815Z,439.15
2019-03-06T04:34:17.311Z,432.88
2019-03-06T04:40:48.604Z,423.02
2019-03-06T04:47:19.551Z,419.77
2019-03-06T04:53:49.745Z,414.80
2019-03-06T05:00:22.361Z,406.82
2019-03-06T05:03:47.451Z,409.77
2019-03-06T05:10:18.209Z,394.32
2019-03-06T05:16:53.903Z,387.35
2019-03-06T05:23:25.191Z,397.90
2019-03-06T05:26:49.296Z,405.47
2019-03-06T05:33:19.588Z,405.07
2019-03-06T05:39:50.878Z,403.30
2019-03-06T05:46:20.931Z,396.70
2019-03-06T05:49:45.389Z,394.03
2019-03-06T05:56:15.745Z,392.90
2019-03-06T06:02:46.692Z,392.90
2019-03-06T06:09:17.559Z,396.43
2019-03-06T06:11:47.340Z,395.77
2019-03-06T06:18:18.128Z,394.67
2019-03-06T06:24:48.891Z,388.50
2019-03-06T06:31:19.708Z,397.17
2019-03-06T06:34:44.513Z,394.48
2019-03-06T06:41:15.501Z,404.77
2019-03-06T06:48:11.092Z,429.12
2019-03-06T06:51:01.963Z,431.85
2019-03-06T06:57:53.419Z,450.20
2019-03-06T07:04:46.103Z,469.37
2019-03-06T07:08:10.247Z,472.65
2019-03-06T07:14:42.428Z,500.02
2019-03-06T07:21:16.933Z,515.67
2019-03-06T07:24:41.604Z,522.52
2019-03-06T07:31:14.421Z,554.85
2019-03-06T07:37:49.572Z,593.95
2019-03-06T07:44:36.734Z,612.60
2019-03-06T07:48:01.274Z,625.65
2019-03-06T07:54:33.386Z,638.90
2019-03-06T08:01:04.100Z,628.75
2019-03-06T08:04:28.778Z,624.93
2019-03-06T08:11:00.220Z,626.20
2019-03-06T08:13:51.551Z,629.00
2019-03-06T08:16:32.125Z,631.07
2019-03-06T08:23:09.819Z,629.98
2019-03-06T08:26:34.259Z,627.73
2019-03-06T08:33:04.725Z,642.08
2019-03-06T08:35:51.111Z,647.15
2019-03-06T08:46:23.495Z,676.85
2019-03-06T08:49:47.771Z,671.40
2019-03-06T08:56:25.295Z,696.12
2019-03-06T09:03:19.992Z,723.42
2019-03-06T09:10:00.719Z,732.90
2019-03-06T09:16:35.957Z,774.38
2019-03-06T09:23:23.183Z,786.17
2019-03-06T09:29:54.161Z,784.40
2019-03-06T09:36:44.276Z,779.35
2019-03-06T09:40:08.936Z,771.22
2019-03-06T09:46:58.042Z,769.83
2019-03-06T09:53:39.977Z,767.25
2019-03-06T10:00:16.606Z,771.85
2019-03-06T10:02:48.218Z,764.20
2019-03-06T10:06:12.770Z,782.33
2019-03-06T10:12:51.282Z,804.87
2019-03-06T10:19:29.673Z,826.33
2019-03-06T10:26:00.980Z,845.67
2019-03-06T10:29:25.571Z,848.23
2019-03-06T10:35:56.615Z,849.10
2019-03-06T10:42:27.929Z,864.15
2019-03-06T10:48:58.809Z,893.92
2019-03-06T10:55:29.720Z,910.65
2019-03-06T11:02:01.111Z,909.80
2019-03-06T11:08:32.260Z,914.87
2019-03-06T11:11:56.861Z,907.67
2019-03-06T11:18:28.064Z,888.30
2019-03-06T11:20:57.971Z,891.08
2019-03-06T11:27:28.865Z,893.90
2019-03-06T11:33:59.916Z,898.72
2019-03-06T11:40:31.175Z,899.90
2019-03-06T11:47:03.815Z,903.10
2019-03-06T11:53:34.724Z,903.97
2019-03-06T12:00:39.659Z,905.42
2019-03-06T12:07:11.139Z,902.90
2019-03-06T12:13:42.361Z,903.70
2019-03-06T12:17:06.831Z,902.40
2019-03-06T12:23:37.447Z,893.80
2019-03-06T12:30:16.726Z,904.10
2019-03-06T12:36:47.693Z,912.33
2019-03-06T12:43:18.673Z,924.70
2019-03-06T12:49:49.441Z,941.00
2019-03-06T12:56:20.226Z,962.33
2019-03-06T13:02:51.538Z,953.08
2019-03-06T13:09:23.718Z,952.28
2019-03-06T13:15:54.735Z,950.40
2019-03-06T13:22:25.818Z,953.47
2019-03-06T13:24:55.726Z,948.10
2019-03-06T13:31:26.662Z,951.55
2019-03-06T13:37:57.545Z,960.10
2019-03-06T13:44:28.429Z,958.83
2019-03-06T13:50:59.159Z,960.97
2019-03-06T13:57:29.827Z,958.73
2019-03-06T14:04:00.573Z,962.00
2019-03-06T14:10:31.401Z,968.13
2019-03-06T14:17:02.332Z,962.60
2019-03-06T14:23:35.244Z,973.30
2019-03-06T14:26:07.052Z,958.70
2019-03-06T14:32:38.631Z,966.40
2019-03-06T14:39:26.905Z,967.20
2019-03-06T14:42:51.444Z,952.45
2019-03-06T14:49:41.594Z,960.50
2019-03-06T14:52:35.482Z,954.57
2019-03-06T14:55:07.746Z,966.85
2019-03-06T14:57:38.492Z,950.95
2019-03-06T15:00:12.294Z,963.40
2019-03-06T15:03:36.971Z,951.13
2019-03-06T15:10:10.850Z,958.92
2019-03-06T15:16:41.954Z,956.78
2019-03-06T15:23:13.246Z,965.65
2019-03-06T15:26:37.875Z,946.85
2019-03-06T15:33:09.131Z,949.38
2019-03-06T15:36:20.323Z,937.20
2019-03-06T15:42:51.022Z,946.87
2019-03-06T15:46:15.517Z,938.52
2019-03-06T15:52:46.205Z,932.32
2019-03-06T15:59:16.624Z,939.95
2019-03-06T16:02:40.808Z,944.93
2019-03-06T16:09:10.952Z,933.23
2019-03-06T16:12:35.011Z,930.05
2019-03-06T16:19:05.906Z,942.90
2019-03-06T16:25:39.718Z,938.20
2019-03-06T16:29:02.707Z,944.07
2019-03-06T16:35:33.117Z,929.87
2019-03-06T16:38:57.651Z,931.90
2019-03-06T16:45:29.725Z,931.93
2019-03-06T16:52:00.371Z,918.65
2019-03-06T16:54:30.384Z,911.92
2019-03-06T17:01:01.928Z,905.08
2019-03-06T17:07:32.687Z,898.80
2019-03-06T17:14:04.147Z,903.77
2019-03-06T17:20:36.068Z,887.47
2019-03-06T17:24:00.377Z,873.95
2019-03-06T17:30:33.103Z,871.52
2019-03-06T17:33:57.457Z,862.45
2019-03-06T17:40:29.534Z,863.27
2019-03-06T17:43:54.697Z,850.02
2019-03-06T17:50:25.915Z,848.83
2019-03-06T17:56:57.020Z,866.90
2019-03-06T18:03:31.197Z,861.20
2019-03-06T18:10:02.791Z,897.85
2019-03-06T18:13:27.648Z,901.52
2019-03-06T18:19:58.676Z,921.48
2019-03-06T18:26:29.874Z,918.82
2019-03-06T18:29:54.062Z,929.63
2019-03-06T18:36:24.906Z,937.47
2019-03-06T18:39:49.488Z,928.70
2019-03-06T18:46:20.569Z,946.27
2019-03-06T18:52:51.700Z,958.40
2019-03-06T18:59:23.031Z,961.77
2019-03-06T19:02:29.406Z,959.90
2019-03-06T19:09:00.473Z,964.12
2019-03-06T19:15:32.939Z,970.50
2019-03-06T19:22:03.369Z,976.02
2019-03-06T19:25:27.995Z,972.85
2019-03-06T19:31:58.160Z,976.80
2019-03-06T19:35:22.090Z,977.33
2019-03-06T19:41:52.334Z,978.27
2019-03-06T19:44:52.643Z,973.40
2019-03-06T19:51:23.818Z,980.05
2019-03-06T19:54:48.948Z,978.05
2019-03-06T20:01:19.516Z,980.10
2019-03-06T20:07:49.908Z,985.73
2019-03-06T20:14:20.774Z,979.67
2019-03-06T20:20:52.300Z,974.35
2019-03-06T20:24:17.204Z,987.97
2019-03-06T20:30:48.342Z,986.00
2019-03-06T20:37:18.983Z,976.30
2019-03-06T20:40:25.480Z,978.20
2019-03-06T20:46:55.925Z,982.42
2019-03-06T20:53:26.047Z,978.40
2019-03-06T20:59:56.321Z,982.55
2019-03-06T21:02:26.315Z,987.42
2019-03-06T21:08:56.845Z,983.17
2019-03-06T21:15:26.724Z,985.90
2019-03-06T21:21:57.623Z,984.05
2019-03-06T21:25:22.035Z,982.85
2019-03-06T21:31:52.733Z,991.15
2019-03-06T21:38:23.741Z,984.15
2019-03-06T21:44:54.860Z,987.40
2019-03-06T21:51:26.096Z,991.62
2019-03-06T21:54:50.542Z,987.67
2019-03-06T22:01:21.240Z,978.20
2019-03-06T22:03:51.172Z,982.60
2019-03-06T22:10:21.909Z,976.33
2019-03-06T22:16:52.754Z,981.65
2019-03-06T22:20:17.119Z,984.40
2019-03-06T22:26:47.839Z,981.60
2019-03-06T22:33:18.414Z,980.72
2019-03-06T22:36:42.923Z,986.73
2019-03-06T22:43:13.415Z,981.63
2019-03-06T22:46:37.873Z,989.32
2019-03-06T22:53:08.818Z,990.45
2019-03-06T22:59:39.557Z,987.65
2019-03-06T23:06:10.849Z,993.53
2019-03-06T23:09:18.835Z,992.30
2019-03-06T23:15:49.559Z,993.20
2019-03-06T23:22:20.498Z,988.72
2019-03-06T23:28:51.572Z,993.07
2019-03-06T23:35:22.509Z,991.73
2019-03-06T23:41:52.983Z,995.63
2019-03-06T23:48:24.018Z,987.65
2019-03-06T23:54:55.154Z,991.87
2019-03-06T23:57:44.227Z,990.37
